createdAt,value
2018-09-26T00:00:11.013Z,2.17
2018-09-26T00:02:46.877Z,2.40
2018-09-26T00:05:15.970Z,2.10
2018-09-26T00:07:44.185Z,2.22
2018-09-26T00:10:12.429Z,2.22
2018-09-26T00:12:40.662Z,2.22
2018-09-26T00:15:08.901Z,2.30
2018-09-26T00:17:37.213Z,2.37
2018-09-26T00:20:05.448Z,2.02
2018-09-26T00:22:33.722Z,2.02
2018-09-26T00:25:01.958Z,2.20
2018-09-26T00:27:30.173Z,2.20
2018-09-26T00:29:58.400Z,2.20
2018-09-26T00:32:26.601Z,2.10
2018-09-26T00:34:54.945Z,2.50
2018-09-26T00:37:23.193Z,2.10
2018-09-26T00:39:51.467Z,2.15
2018-09-26T00:42:19.705Z,2.10
2018-09-26T00:44:48.000Z,1.82
2018-09-26T00:47:16.219Z,2.08
2018-09-26T00:49:44.456Z,2.20
2018-09-26T00:52:12.676Z,2.13
2018-09-26T00:54:40.934Z,2.20
2018-09-26T00:57:09.184Z,2.00
2018-09-26T00:59:37.421Z,2.00
2018-09-26T01:02:05.665Z,1.90
2018-09-26T01:04:33.949Z,2.47
2018-09-26T01:07:02.164Z,2.20
2018-09-26T01:09:30.395Z,1.80
2018-09-26T01:11:58.653Z,2.20
2018-09-26T01:14:26.917Z,2.37
2018-09-26T01:16:55.125Z,2.30
2018-09-26T01:19:23.368Z,2.10
2018-09-26T01:21:51.581Z,2.40
2018-09-26T01:24:19.833Z,2.40
2018-09-26T01:26:48.053Z,2.08
2018-09-26T01:29:16.347Z,2.20
2018-09-26T01:31:44.613Z,1.95
2018-09-26T01:34:12.845Z,1.98
2018-09-26T01:36:41.065Z,2.20
2018-09-26T01:39:09.937Z,1.70
2018-09-26T01:41:38.244Z,2.10
2018-09-26T01:44:06.562Z,1.87
2018-09-26T01:46:34.781Z,2.00
2018-09-26T01:49:03.052Z,2.20
2018-09-26T01:51:31.293Z,1.80
2018-09-26T01:53:59.510Z,2.00
2018-09-26T01:56:27.738Z,1.70
2018-09-26T01:58:55.998Z,1.90
2018-09-26T02:01:24.263Z,1.65
2018-09-26T02:03:52.486Z,2.10
2018-09-26T02:06:20.721Z,1.82
2018-09-26T02:08:48.941Z,2.10
2018-09-26T02:11:17.214Z,1.73
2018-09-26T02:13:45.462Z,1.95
2018-09-26T02:16:13.705Z,1.87
2018-09-26T02:18:41.957Z,1.90
2018-09-26T02:21:10.188Z,1.93
2018-09-26T02:23:38.477Z,2.00
2018-09-26T02:26:06.694Z,2.50
2018-09-26T02:28:35.002Z,2.45
2018-09-26T02:31:03.248Z,1.90
2018-09-26T02:33:31.473Z,1.70
2018-09-26T02:35:59.714Z,2.10
2018-09-26T02:38:27.962Z,2.10
2018-09-26T02:40:56.214Z,1.80
2018-09-26T02:43:24.457Z,2.10
2018-09-26T02:45:52.709Z,2.20
2018-09-26T02:48:26.398Z,1.70
2018-09-26T02:50:54.685Z,1.70
2018-09-26T02:53:22.900Z,1.87
2018-09-26T02:55:51.226Z,2.20
2018-09-26T02:58:19.453Z,1.70
2018-09-26T03:00:47.693Z,1.98
2018-09-26T03:03:15.905Z,2.10
2018-09-26T03:05:44.178Z,2.00
2018-09-26T03:08:12.388Z,1.80
2018-09-26T03:10:40.620Z,2.13
2018-09-26T03:13:08.955Z,1.90
2018-09-26T03:15:37.246Z,1.80
2018-09-26T03:18:05.473Z,2.00
2018-09-26T03:20:33.720Z,1.90
2018-09-26T03:23:01.956Z,1.80
2018-09-26T03:25:30.192Z,2.50
2018-09-26T03:27:58.530Z,2.10
2018-09-26T03:30:26.766Z,2.50
2018-09-26T03:32:55.014Z,2.05
2018-09-26T03:35:23.249Z,2.20
2018-09-26T03:37:51.488Z,1.80
2018-09-26T03:40:19.732Z,2.10
2018-09-26T03:42:48.069Z,2.00
2018-09-26T03:45:16.329Z,2.20
2018-09-26T03:47:44.552Z,1.95
2018-09-26T03:50:12.775Z,2.23
2018-09-26T03:52:41.029Z,2.20
2018-09-26T03:55:09.261Z,2.12
2018-09-26T03:57:37.537Z,1.98
2018-09-26T04:00:05.809Z,1.80
2018-09-26T04:02:34.071Z,1.82
2018-09-26T04:05:02.409Z,1.65
2018-09-26T04:07:31.516Z,1.70
2018-09-26T04:09:59.765Z,1.60
2018-09-26T04:12:28.320Z,1.73
2018-09-26T04:14:56.525Z,1.80
2018-09-26T04:17:24.766Z,1.73
2018-09-26T04:19:52.999Z,1.90
2018-09-26T04:22:21.238Z,1.70
2018-09-26T04:24:49.467Z,2.00
2018-09-26T04:27:18.529Z,1.80
2018-09-26T04:29:46.703Z,2.00
2018-09-26T04:32:14.945Z,1.85
2018-09-26T04:34:43.167Z,1.70
2018-09-26T04:37:11.440Z,1.73
2018-09-26T04:39:39.660Z,1.92
2018-09-26T04:42:07.893Z,1.97
2018-09-26T04:44:36.129Z,1.70
2018-09-26T04:47:04.382Z,2.20
2018-09-26T04:49:32.635Z,1.90
2018-09-26T04:52:00.877Z,1.60
2018-09-26T04:54:29.101Z,1.60
2018-09-26T04:56:57.349Z,1.87
2018-09-26T04:59:25.592Z,1.60
2018-09-26T05:01:53.833Z,1.90
2018-09-26T05:04:22.057Z,1.77
2018-09-26T05:06:50.348Z,2.00
2018-09-26T05:09:18.600Z,1.83
2018-09-26T05:11:46.860Z,2.30
2018-09-26T05:14:15.086Z,2.10
2018-09-26T05:16:43.328Z,1.70
2018-09-26T05:19:11.589Z,1.97
2018-09-26T05:21:39.848Z,1.60
2018-09-26T05:24:08.636Z,1.70
2018-09-26T05:26:36.947Z,1.70
2018-09-26T05:29:05.178Z,1.80
2018-09-26T05:31:33.429Z,1.70
2018-09-26T05:34:01.661Z,1.80
2018-09-26T05:36:29.904Z,1.90
2018-09-26T05:38:58.154Z,1.80
2018-09-26T05:41:26.384Z,1.50
2018-09-26T05:43:54.693Z,1.80
2018-09-26T05:46:23.207Z,1.60
2018-09-26T05:48:51.513Z,1.70
2018-09-26T05:51:19.757Z,1.80
2018-09-26T05:53:48.064Z,1.70
2018-09-26T05:56:16.657Z,1.97
2018-09-26T05:58:44.921Z,1.53
2018-09-26T06:01:13.162Z,1.65
2018-09-26T06:03:42.233Z,1.85
2018-09-26T06:06:10.478Z,1.80
2018-09-26T06:08:38.729Z,1.65
2018-09-26T06:11:07.204Z,1.82
2018-09-26T06:13:35.533Z,1.50
2018-09-26T06:16:03.879Z,1.70
2018-09-26T06:18:32.190Z,1.40
2018-09-26T06:21:00.420Z,1.50
2018-09-26T06:23:28.669Z,1.80
2018-09-26T06:25:56.909Z,7.70
2018-09-26T06:28:25.316Z,1.80
2018-09-26T06:30:53.561Z,1.50
2018-09-26T06:33:21.825Z,1.77
2018-09-26T06:35:50.091Z,2.00
2018-09-26T06:38:18.401Z,1.60
2018-09-26T06:40:46.626Z,1.57
2018-09-26T06:43:14.877Z,1.70
2018-09-26T06:45:43.130Z,1.70
2018-09-26T06:48:11.442Z,1.77
2018-09-26T06:50:39.674Z,2.00
2018-09-26T06:53:07.979Z,1.50
2018-09-26T06:55:36.256Z,1.40
2018-09-26T06:58:04.533Z,1.50
2018-09-26T07:00:32.777Z,1.62
2018-09-26T07:03:01.082Z,1.73
2018-09-26T07:05:30.017Z,1.77
2018-09-26T07:07:58.269Z,1.70
2018-09-26T07:10:26.499Z,1.80
2018-09-26T07:12:54.856Z,2.30
2018-09-26T07:15:23.089Z,1.70
2018-09-26T07:17:51.681Z,1.80
2018-09-26T07:20:20.126Z,1.77
2018-09-26T07:22:48.437Z,1.80
2018-09-26T07:25:16.736Z,1.82
2018-09-26T07:27:45.031Z,1.87
2018-09-26T07:30:13.274Z,1.75
2018-09-26T07:32:41.518Z,1.60
2018-09-26T07:35:09.782Z,1.90
2018-09-26T07:37:38.008Z,1.67
2018-09-26T07:40:06.609Z,2.25
2018-09-26T07:42:34.880Z,1.90
2018-09-26T07:45:03.132Z,1.70
2018-09-26T07:47:31.529Z,1.60
2018-09-26T07:49:59.838Z,1.80
2018-09-26T07:52:28.077Z,1.52
2018-09-26T07:54:56.321Z,1.75
2018-09-26T07:57:24.625Z,1.72
2018-09-26T07:59:53.030Z,2.03
2018-09-26T08:02:21.231Z,1.60
2018-09-26T08:04:49.488Z,1.50
2018-09-26T08:07:17.840Z,1.65
2018-09-26T08:09:46.110Z,2.15
2018-09-26T08:12:14.361Z,1.80
2018-09-26T08:14:42.647Z,2.10
2018-09-26T08:17:10.894Z,1.70
2018-09-26T08:19:39.164Z,1.90
2018-09-26T08:22:07.411Z,1.90
2018-09-26T08:24:35.675Z,2.00
2018-09-26T08:27:03.990Z,1.70
2018-09-26T08:29:32.258Z,1.90
2018-09-26T08:32:00.522Z,1.70
2018-09-26T08:34:28.797Z,1.70
2018-09-26T08:36:57.026Z,1.90
2018-09-26T08:39:26.489Z,2.20
2018-09-26T08:41:54.738Z,1.70
2018-09-26T08:44:22.992Z,1.80
2018-09-26T08:46:51.232Z,1.80
2018-09-26T08:49:19.473Z,1.57
2018-09-26T08:51:47.705Z,1.83
2018-09-26T08:54:16.009Z,1.60
2018-09-26T08:56:44.229Z,1.77
2018-09-26T08:59:12.533Z,1.60
2018-09-26T09:01:44.837Z,1.40
2018-09-26T09:04:13.176Z,1.67
2018-09-26T09:06:41.408Z,1.50
2018-09-26T09:09:09.730Z,1.80
2018-09-26T09:11:38.263Z,1.85
2018-09-26T09:14:06.791Z,1.70
2018-09-26T09:16:35.223Z,1.57
2018-09-26T09:19:03.498Z,1.73
2018-09-26T09:21:31.788Z,1.90
2018-09-26T09:24:00.065Z,1.73
2018-09-26T09:26:28.290Z,2.05
2018-09-26T09:28:56.673Z,1.60
2018-09-26T09:31:24.930Z,1.70
2018-09-26T09:33:53.167Z,2.20
2018-09-26T09:36:21.446Z,1.77
2018-09-26T09:38:49.693Z,1.52
2018-09-26T09:41:18.018Z,1.80
2018-09-26T09:43:46.260Z,2.00
2018-09-26T09:46:14.517Z,2.00
2018-09-26T09:48:42.754Z,1.85
2018-09-26T09:51:11.005Z,1.50
2018-09-26T09:53:39.261Z,2.67
2018-09-26T09:56:07.634Z,2.00
2018-09-26T09:58:35.847Z,1.80
2018-09-26T10:01:09.412Z,2.08
2018-09-26T10:03:37.656Z,2.00
2018-09-26T10:06:05.913Z,2.30
2018-09-26T10:08:34.206Z,1.87
2018-09-26T10:11:02.409Z,2.40
2018-09-26T10:13:31.085Z,2.17
2018-09-26T10:15:59.338Z,2.13
2018-09-26T10:18:27.613Z,1.70
2018-09-26T10:20:55.852Z,2.10
2018-09-26T10:23:24.109Z,2.30
2018-09-26T10:25:52.360Z,2.00
2018-09-26T10:28:20.577Z,1.95
2018-09-26T10:30:48.834Z,2.30
2018-09-26T10:33:17.053Z,2.55
2018-09-26T10:35:45.289Z,1.80
2018-09-26T10:38:13.548Z,2.00
2018-09-26T10:40:41.867Z,2.05
2018-09-26T10:43:10.077Z,2.00
2018-09-26T10:45:38.363Z,2.10
2018-09-26T10:48:06.703Z,2.13
2018-09-26T10:50:35.011Z,2.20
2018-09-26T10:53:03.403Z,2.43
2018-09-26T10:55:31.761Z,1.98
2018-09-26T10:58:00.002Z,1.97
2018-09-26T11:00:28.231Z,1.70
2018-09-26T11:02:56.490Z,1.90
2018-09-26T11:05:24.710Z,2.27
2018-09-26T11:07:52.953Z,2.00
2018-09-26T11:10:21.245Z,2.83
2018-09-26T11:12:50.058Z,3.23
2018-09-26T11:15:18.349Z,2.77
2018-09-26T11:17:46.753Z,2.15
2018-09-26T11:20:15.073Z,2.70
2018-09-26T11:22:43.409Z,2.00
2018-09-26T11:25:11.707Z,1.77
2018-09-26T11:27:39.965Z,2.00
2018-09-26T11:30:08.269Z,1.60
2018-09-26T11:32:36.522Z,1.93
2018-09-26T11:35:04.761Z,1.90
2018-09-26T11:37:33.011Z,2.20
2018-09-26T11:40:01.289Z,2.00
2018-09-26T11:42:29.764Z,2.10
2018-09-26T11:44:58.018Z,2.12
2018-09-26T11:47:26.296Z,2.20
2018-09-26T11:50:01.158Z,2.30
2018-09-26T11:52:29.418Z,2.20
2018-09-26T11:54:57.690Z,1.70
2018-09-26T11:57:25.989Z,1.98
2018-09-26T11:59:54.246Z,1.77
2018-09-26T12:02:22.555Z,2.40
2018-09-26T12:04:50.746Z,1.90
2018-09-26T12:07:19.062Z,2.00
2018-09-26T12:09:48.215Z,1.82
2018-09-26T12:12:16.516Z,1.80
2018-09-26T12:14:44.852Z,2.40
2018-09-26T12:17:13.146Z,2.10
2018-09-26T12:19:41.425Z,1.98
2018-09-26T12:22:09.749Z,1.85
2018-09-26T12:24:37.937Z,1.80
2018-09-26T12:27:06.283Z,2.00
2018-09-26T12:29:34.863Z,1.80
2018-09-26T12:32:03.149Z,2.17
2018-09-26T12:34:31.409Z,1.97
2018-09-26T12:36:59.789Z,1.90
2018-09-26T12:39:28.062Z,3.67
2018-09-26T12:41:56.305Z,3.20
2018-09-26T12:44:24.557Z,2.30
2018-09-26T12:46:52.794Z,1.73
2018-09-26T12:49:21.066Z,1.97
2018-09-26T12:51:49.314Z,2.00
2018-09-26T12:54:17.578Z,2.10
2018-09-26T12:56:45.858Z,1.90
2018-09-26T12:59:14.116Z,2.10
2018-09-26T13:01:42.349Z,1.90
2018-09-26T13:04:10.618Z,1.93
2018-09-26T13:06:38.890Z,2.17
2018-09-26T13:09:07.278Z,2.50
2018-09-26T13:11:35.526Z,1.95
2018-09-26T13:14:03.861Z,1.90
2018-09-26T13:16:32.145Z,2.00
2018-09-26T13:19:00.467Z,2.10
2018-09-26T13:21:28.657Z,2.10
2018-09-26T13:23:56.914Z,1.87
2018-09-26T13:26:26.043Z,2.10
2018-09-26T13:28:54.157Z,2.30
2018-09-26T13:31:22.421Z,2.50
2018-09-26T13:33:50.654Z,2.37
2018-09-26T13:36:18.975Z,2.23
2018-09-26T13:38:47.215Z,2.10
2018-09-26T13:41:15.484Z,2.20
2018-09-26T13:43:43.717Z,2.20
2018-09-26T13:46:12.084Z,2.20
2018-09-26T13:48:40.269Z,2.27
2018-09-26T13:51:08.517Z,2.50
2018-09-26T13:53:36.761Z,2.20
2018-09-26T13:56:05.023Z,2.20
2018-09-26T13:58:33.269Z,2.30
2018-09-26T14:01:01.800Z,2.00
2018-09-26T14:03:30.059Z,2.20
2018-09-26T14:05:58.320Z,2.30
2018-09-26T14:08:26.560Z,2.40
2018-09-26T14:10:54.839Z,2.20
2018-09-26T14:13:23.115Z,1.90
2018-09-26T14:15:51.352Z,2.50
2018-09-26T14:18:19.676Z,2.60
2018-09-26T14:21:04.699Z,2.20
2018-09-26T14:23:33.163Z,1.90
2018-09-26T14:26:01.601Z,1.82
2018-09-26T14:28:30.105Z,1.77
2018-09-26T14:30:58.605Z,2.20
2018-09-26T14:33:27.872Z,1.95
2018-09-26T14:35:56.292Z,1.70
2018-09-26T14:38:24.834Z,2.07
2018-09-26T14:40:53.377Z,2.20
2018-09-26T14:43:21.846Z,1.80
2018-09-26T14:45:50.422Z,1.60
2018-09-26T14:48:18.822Z,1.80
2018-09-26T14:50:48.129Z,1.92
2018-09-26T14:53:16.672Z,1.80
2018-09-26T14:55:45.096Z,2.20
2018-09-26T14:58:13.612Z,1.90
2018-09-26T15:00:42.002Z,1.80
2018-09-26T15:03:10.445Z,1.87
2018-09-26T15:05:38.922Z,2.03
2018-09-26T15:08:07.373Z,2.25
2018-09-26T15:10:35.909Z,2.10
2018-09-26T15:13:04.326Z,3.53
2018-09-26T15:15:32.758Z,2.50
2018-09-26T15:18:01.213Z,2.90
2018-09-26T15:20:29.643Z,2.50
2018-09-26T15:22:58.046Z,1.97
2018-09-26T15:25:26.476Z,2.20
2018-09-26T15:27:55.021Z,1.90
2018-09-26T15:30:23.505Z,1.70
2018-09-26T15:32:51.909Z,2.00
2018-09-26T15:35:20.403Z,2.00
2018-09-26T15:37:49.021Z,2.15
2018-09-26T15:40:17.553Z,2.17
2018-09-26T15:42:45.897Z,2.70
2018-09-26T15:45:14.336Z,2.17
2018-09-26T15:47:42.764Z,1.90
2018-09-26T15:50:11.425Z,2.12
2018-09-26T15:52:39.866Z,1.72
2018-09-26T15:55:08.309Z,2.17
2018-09-26T15:57:37.072Z,2.40
2018-09-26T16:00:05.778Z,2.30
2018-09-26T16:02:34.109Z,2.08
2018-09-26T16:05:19.162Z,1.73
2018-09-26T16:07:47.868Z,1.98
2018-09-26T16:10:16.145Z,2.25
2018-09-26T16:12:45.448Z,2.37
2018-09-26T16:15:13.733Z,1.90
2018-09-26T16:17:42.051Z,1.72
2018-09-26T16:20:10.297Z,1.70
2018-09-26T16:22:38.570Z,1.90
2018-09-26T16:25:06.805Z,2.00
2018-09-26T16:27:35.121Z,2.10
2018-09-26T16:30:03.446Z,1.95
2018-09-26T16:32:31.722Z,2.30
2018-09-26T16:35:00.011Z,2.28
2018-09-26T16:37:28.258Z,2.15
2018-09-26T16:39:56.525Z,2.20
2018-09-26T16:42:24.825Z,2.15
2018-09-26T16:44:53.063Z,2.07
2018-09-26T16:47:21.325Z,2.08
2018-09-26T16:49:49.578Z,2.20
2018-09-26T16:52:17.873Z,1.80
2018-09-26T16:54:46.189Z,1.65
2018-09-26T16:57:14.451Z,1.77
2018-09-26T16:59:42.684Z,2.30
2018-09-26T17:02:11.020Z,1.60
2018-09-26T17:04:39.234Z,1.80
2018-09-26T17:07:07.535Z,2.25
2018-09-26T17:09:35.811Z,2.10
2018-09-26T17:12:04.093Z,1.96
2018-09-26T17:14:32.367Z,2.10
2018-09-26T17:17:00.613Z,1.98
2018-09-26T17:19:28.946Z,1.90
2018-09-26T17:21:57.230Z,1.90
2018-09-26T17:24:25.578Z,2.10
2018-09-26T17:26:53.766Z,2.00
2018-09-26T17:29:22.065Z,2.20
2018-09-26T17:31:50.313Z,2.00
2018-09-26T17:34:19.048Z,1.87
2018-09-26T17:36:47.293Z,2.40
2018-09-26T17:39:15.553Z,2.40
2018-09-26T17:41:43.792Z,2.00
2018-09-26T17:44:12.057Z,1.80
2018-09-26T17:46:40.313Z,2.10
2018-09-26T17:49:08.643Z,2.07
2018-09-26T17:51:36.851Z,2.00
2018-09-26T17:54:05.123Z,2.10
2018-09-26T17:56:33.377Z,2.00
2018-09-26T17:59:01.645Z,2.10
2018-09-26T18:01:29.942Z,1.90
2018-09-26T18:03:58.322Z,2.10
2018-09-26T18:06:26.616Z,2.55
2018-09-26T18:08:54.896Z,2.17
2018-09-26T18:11:23.145Z,2.37
2018-09-26T18:13:51.437Z,2.50
2018-09-26T18:16:19.734Z,2.72
2018-09-26T18:18:48.063Z,2.60
2018-09-26T18:21:16.305Z,3.62
2018-09-26T18:23:44.596Z,2.85
2018-09-26T18:26:12.873Z,2.30
2018-09-26T18:28:41.150Z,2.90
2018-09-26T18:31:09.480Z,2.50
2018-09-26T18:33:37.814Z,3.20
2018-09-26T18:36:06.003Z,3.17
2018-09-26T18:38:34.808Z,2.80
2018-09-26T18:41:03.076Z,2.83
2018-09-26T18:43:31.364Z,3.00
2018-09-26T18:45:59.658Z,2.97
2018-09-26T18:48:27.930Z,3.40
2018-09-26T18:50:56.879Z,3.60
2018-09-26T18:53:25.508Z,2.60
2018-09-26T18:55:53.663Z,3.33
2018-09-26T18:58:21.933Z,3.12
2018-09-26T19:00:50.230Z,4.00
2018-09-26T19:03:18.521Z,4.20
2018-09-26T19:05:46.782Z,3.02
2018-09-26T19:08:15.043Z,3.80
2018-09-26T19:10:43.718Z,3.70
2018-09-26T19:13:12.011Z,3.40
2018-09-26T19:15:40.281Z,3.70
2018-09-26T19:18:08.574Z,3.58
2018-09-26T19:20:36.878Z,3.65
2018-09-26T19:23:05.173Z,3.55
2018-09-26T19:25:33.453Z,3.40
2018-09-26T19:28:01.712Z,3.30
2018-09-26T19:30:30.009Z,3.67
2018-09-26T19:32:58.309Z,4.37
2018-09-26T19:35:26.590Z,3.75
2018-09-26T19:37:54.873Z,3.60
2018-09-26T19:40:23.146Z,3.70
2018-09-26T19:42:51.445Z,4.10
2018-09-26T19:45:19.754Z,4.25
2018-09-26T19:47:48.023Z,3.90
2018-09-26T19:50:16.320Z,4.27
2018-09-26T19:52:44.566Z,4.30
2018-09-26T19:55:12.854Z,4.50
2018-09-26T19:57:41.130Z,4.30
2018-09-26T20:00:09.421Z,4.20
2018-09-26T20:02:37.710Z,4.17
2018-09-26T20:05:06.297Z,4.30
2018-09-26T20:07:34.535Z,4.03
2018-09-26T20:10:02.842Z,4.47
2018-09-26T20:12:31.162Z,3.90
2018-09-26T20:14:59.464Z,3.90
2018-09-26T20:17:27.772Z,4.20
2018-09-26T20:19:56.077Z,4.62
2018-09-26T20:22:24.341Z,3.57
2018-09-26T20:24:52.701Z,4.45
2018-09-26T20:27:21.952Z,4.17
2018-09-26T20:29:50.227Z,4.08
2018-09-26T20:32:18.464Z,4.00
2018-09-26T20:34:47.454Z,4.27
2018-09-26T20:37:16.290Z,4.08
2018-09-26T20:39:45.350Z,3.60
2018-09-26T20:42:13.984Z,4.22
2018-09-26T20:44:42.895Z,4.20
2018-09-26T20:47:11.567Z,3.90
2018-09-26T20:49:40.559Z,3.83
2018-09-26T20:52:09.583Z,3.95
2018-09-26T20:54:38.573Z,3.50
2018-09-26T20:57:07.461Z,4.10
2018-09-26T20:59:35.777Z,3.93
2018-09-26T21:02:04.384Z,3.93
2018-09-26T21:04:32.693Z,3.77
2018-09-26T21:07:00.985Z,3.72
2018-09-26T21:09:29.341Z,3.85
2018-09-26T21:11:57.676Z,4.10
2018-09-26T21:14:25.955Z,3.80
2018-09-26T21:16:54.223Z,3.60
2018-09-26T21:19:22.496Z,4.13
2018-09-26T21:21:50.789Z,3.87
2018-09-26T21:24:19.193Z,3.70
2018-09-26T21:26:47.522Z,3.90
2018-09-26T21:29:16.295Z,3.50
2018-09-26T21:31:44.607Z,3.90
2018-09-26T21:34:12.869Z,3.80
2018-09-26T21:36:41.157Z,4.00
2018-09-26T21:39:09.595Z,3.95
2018-09-26T21:41:37.781Z,4.10
2018-09-26T21:44:06.117Z,4.22
2018-09-26T21:46:34.381Z,4.65
2018-09-26T21:49:03.114Z,3.87
2018-09-26T21:51:31.470Z,3.87
2018-09-26T21:53:59.718Z,4.03
2018-09-26T21:56:28.002Z,4.73
2018-09-26T21:58:56.273Z,4.10
2018-09-26T22:01:28.710Z,4.58
2018-09-26T22:03:56.954Z,4.70
2018-09-26T22:06:25.377Z,4.57
2018-09-26T22:08:53.649Z,4.47
2018-09-26T22:11:22.581Z,4.70
2018-09-26T22:13:50.842Z,4.47
2018-09-26T22:16:19.124Z,4.70
2018-09-26T22:18:47.375Z,4.40
2018-09-26T22:21:15.680Z,4.27
2018-09-26T22:23:43.926Z,4.40
2018-09-26T22:26:12.193Z,4.70
2018-09-26T22:28:40.457Z,4.87
2018-09-26T22:31:08.741Z,4.87
2018-09-26T22:33:37.694Z,5.08
2018-09-26T22:36:05.694Z,4.80
2018-09-26T22:38:33.954Z,4.40
2018-09-26T22:41:02.229Z,4.90
2018-09-26T22:43:30.477Z,4.83
2018-09-26T22:45:58.753Z,4.13
2018-09-26T22:48:27.046Z,4.90
2018-09-26T22:50:55.335Z,4.78
2018-09-26T22:53:24.416Z,4.70
2018-09-26T22:55:52.652Z,5.70
2018-09-26T22:58:20.929Z,4.40
2018-09-26T23:00:49.177Z,4.90
2018-09-26T23:03:17.435Z,4.95
2018-09-26T23:05:45.685Z,5.00
2018-09-26T23:08:13.962Z,4.87
2018-09-26T23:10:42.234Z,5.50
2018-09-26T23:13:10.506Z,5.20
2018-09-26T23:24:10.225Z,5.42
2018-09-26T23:26:38.489Z,5.37
2018-09-26T23:29:06.805Z,5.25
2018-09-26T23:31:35.081Z,5.00
2018-09-26T23:34:03.410Z,5.60
2018-09-26T23:36:31.694Z,5.50
2018-09-26T23:39:00.011Z,5.12
2018-09-26T23:41:28.346Z,5.50
2018-09-26T23:43:56.645Z,4.80
2018-09-26T23:46:24.918Z,4.92
2018-09-26T23:48:53.226Z,5.15
2018-09-26T23:51:21.493Z,5.10
2018-09-26T23:53:49.781Z,5.40
2018-09-26T23:56:18.083Z,5.50
2018-09-26T23:58:46.362Z,5.87
